createdAt,value
2022-10-24T00:01:40.638Z,4.27
2022-10-24T00:04:10.135Z,6.50
2022-10-24T00:06:38.183Z,4.30
2022-10-24T00:09:06.202Z,3.97
2022-10-24T00:11:34.923Z,3.93
2022-10-24T00:14:03.673Z,4.33
2022-10-24T00:16:31.743Z,4.70
2022-10-24T00:18:59.761Z,4.47
2022-10-24T00:21:29.286Z,4.00
2022-10-24T00:23:57.261Z,4.43
2022-10-24T00:26:25.271Z,4.53
2022-10-24T00:28:53.484Z,4.57
2022-10-24T00:31:21.699Z,4.33
2022-10-24T00:33:50.142Z,4.27
2022-10-24T00:36:21.401Z,4.50
2022-10-24T00:38:52.448Z,4.03
2022-10-24T00:41:24.614Z,4.80
2022-10-24T00:44:08.129Z,4.23
2022-10-24T00:46:36.254Z,4.03
2022-10-24T00:49:04.371Z,3.80
2022-10-24T00:51:34.919Z,4.83
2022-10-24T00:54:07.129Z,3.63
2022-10-24T00:56:38.558Z,5.63
2022-10-24T00:59:09.352Z,4.20
2022-10-24T01:01:38.588Z,4.67
2022-10-24T01:04:07.871Z,4.77
2022-10-24T01:06:47.511Z,5.33
2022-10-24T01:09:32.112Z,5.03
2022-10-24T01:12:10.102Z,5.30
2022-10-24T01:14:48.645Z,5.50
2022-10-24T01:17:21.473Z,7.00
2022-10-24T01:20:18.010Z,5.60
2022-10-24T01:23:01.908Z,5.77
2022-10-24T01:25:39.529Z,6.60
2022-10-24T01:28:12.584Z,6.87
2022-10-24T01:30:46.331Z,6.20
2022-10-24T01:33:22.931Z,5.60
2022-10-24T01:35:55.896Z,6.37
2022-10-24T01:38:29.544Z,5.30
2022-10-24T01:41:00.382Z,5.30
2022-10-24T01:43:31.328Z,6.80
2022-10-24T01:46:04.052Z,6.20
2022-10-24T01:48:36.563Z,5.90
2022-10-24T01:51:06.160Z,5.17
2022-10-24T01:53:36.293Z,6.00
2022-10-24T01:56:04.826Z,5.83
2022-10-24T01:58:32.829Z,5.13
2022-10-24T02:01:07.020Z,5.00
2022-10-24T02:03:38.030Z,5.20
2022-10-24T02:06:11.779Z,5.00
2022-10-24T02:08:44.507Z,6.13
2022-10-24T02:11:12.789Z,6.00
2022-10-24T02:13:46.177Z,6.00
2022-10-24T02:16:18.753Z,6.17
2022-10-24T02:18:47.869Z,5.40
2022-10-24T02:21:25.378Z,5.47
2022-10-24T02:23:56.911Z,5.00
2022-10-24T02:26:32.910Z,4.40
2022-10-24T02:29:05.426Z,4.97
2022-10-24T02:31:40.683Z,5.40
2022-10-24T02:36:42.286Z,5.60
2022-10-24T02:39:12.678Z,4.37
2022-10-24T02:41:43.540Z,5.00
2022-10-24T02:44:13.524Z,4.40
2022-10-24T02:46:44.422Z,4.60
2022-10-24T02:49:12.488Z,4.70
2022-10-24T02:51:43.435Z,5.53
2022-10-24T02:54:11.963Z,4.57
2022-10-24T02:56:44.406Z,3.93
2022-10-24T02:59:12.592Z,4.57
2022-10-24T03:01:41.981Z,5.20
2022-10-24T03:04:10.065Z,4.70
2022-10-24T03:06:38.103Z,4.27
2022-10-24T03:09:06.199Z,3.73
2022-10-24T03:11:34.616Z,4.90
2022-10-24T03:14:02.857Z,4.67
2022-10-24T03:16:30.864Z,3.70
2022-10-24T03:19:00.247Z,4.10
2022-10-24T03:21:28.305Z,3.50
2022-10-24T03:23:56.414Z,3.77
2022-10-24T03:26:24.655Z,4.23
2022-10-24T03:28:52.729Z,4.47
2022-10-24T03:31:20.769Z,4.10
2022-10-24T03:33:48.771Z,4.27
2022-10-24T03:36:18.661Z,4.37
2022-10-24T03:38:46.732Z,3.80
2022-10-24T03:41:14.795Z,6.40
2022-10-24T03:43:42.804Z,4.90
2022-10-24T03:46:10.917Z,3.73
2022-10-24T03:48:38.911Z,3.27
2022-10-24T03:51:07.091Z,4.70
2022-10-24T03:53:36.575Z,3.97
2022-10-24T03:56:04.892Z,4.03
2022-10-24T03:58:32.988Z,3.87
2022-10-24T04:01:01.162Z,4.27
2022-10-24T04:03:29.508Z,3.67
2022-10-24T04:05:57.554Z,4.70
2022-10-24T04:08:25.707Z,4.30
2022-10-24T04:10:55.072Z,4.53
2022-10-24T04:13:23.217Z,3.80
2022-10-24T04:15:51.315Z,4.47
2022-10-24T04:18:19.650Z,4.30
2022-10-24T04:20:48.025Z,4.07
2022-10-24T04:23:16.090Z,4.00
2022-10-24T04:25:44.848Z,4.23
2022-10-24T04:28:14.269Z,4.10
2022-10-24T04:33:11.489Z,4.00
2022-10-24T04:35:39.545Z,3.80
2022-10-24T04:38:08.029Z,3.97
2022-10-24T04:40:36.029Z,3.70
2022-10-24T04:43:04.077Z,3.90
2022-10-24T04:45:33.430Z,3.57
2022-10-24T04:48:01.483Z,3.17
2022-10-24T04:50:29.471Z,2.60
2022-10-24T04:52:57.519Z,3.10
2022-10-24T04:55:25.909Z,2.47
2022-10-24T04:57:54.005Z,2.90
2022-10-24T05:00:22.025Z,2.40
2022-10-24T05:02:54.059Z,2.33
2022-10-24T05:05:24.768Z,2.70
2022-10-24T05:07:52.856Z,2.37
2022-10-24T05:10:21.037Z,2.83
2022-10-24T05:12:49.061Z,3.10
2022-10-24T05:15:18.565Z,2.70
2022-10-24T05:17:46.593Z,3.73
2022-10-24T05:20:17.351Z,3.63
2022-10-24T05:22:45.545Z,2.27
2022-10-24T05:25:14.054Z,3.17
2022-10-24T05:27:42.149Z,3.00
2022-10-24T05:30:11.402Z,3.10
2022-10-24T05:32:39.921Z,2.33
2022-10-24T05:35:09.157Z,2.53
2022-10-24T05:37:39.074Z,2.60
2022-10-24T05:40:09.221Z,2.90
2022-10-24T05:42:38.627Z,3.77
2022-10-24T05:45:08.249Z,3.63
2022-10-24T05:47:36.287Z,2.67
2022-10-24T05:50:04.642Z,2.83
2022-10-24T05:52:32.667Z,3.17
2022-10-24T05:55:07.415Z,2.70
2022-10-24T05:57:36.610Z,2.80
2022-10-24T06:00:07.074Z,3.10
2022-10-24T06:02:40.559Z,3.37
2022-10-24T06:05:10.031Z,2.47
2022-10-24T06:07:38.259Z,2.57
2022-10-24T06:10:08.671Z,2.70
2022-10-24T06:12:37.052Z,2.40
2022-10-24T06:15:08.000Z,2.27
2022-10-24T06:17:36.618Z,2.40
2022-10-24T06:20:05.239Z,2.67
2022-10-24T06:22:33.323Z,3.30
2022-10-24T06:25:01.613Z,2.33
2022-10-24T06:27:31.041Z,2.53
2022-10-24T06:29:59.090Z,3.20
2022-10-24T06:32:27.112Z,2.60
2022-10-24T06:34:55.130Z,2.80
2022-10-24T06:37:23.147Z,2.63
2022-10-24T06:39:51.283Z,2.90
2022-10-24T06:42:19.301Z,3.40
2022-10-24T06:44:48.704Z,3.47
2022-10-24T06:47:16.743Z,2.73
2022-10-24T06:49:44.756Z,2.80
2022-10-24T06:52:12.789Z,3.87
2022-10-24T06:54:41.152Z,2.70
2022-10-24T06:57:09.203Z,2.67
2022-10-24T06:59:37.277Z,2.77
2022-10-24T07:02:07.015Z,3.30
2022-10-24T07:04:35.214Z,3.10
2022-10-24T07:07:03.244Z,2.53
2022-10-24T07:09:31.604Z,2.40
2022-10-24T07:12:00.246Z,3.27
2022-10-24T07:14:28.342Z,3.03
2022-10-24T07:16:56.350Z,3.47
2022-10-24T07:19:25.792Z,3.90
2022-10-24T07:21:53.844Z,2.93
2022-10-24T07:24:22.643Z,3.13
2022-10-24T07:26:51.119Z,3.50
2022-10-24T07:29:19.143Z,2.73
2022-10-24T07:31:48.192Z,2.90
2022-10-24T07:34:16.282Z,2.40
2022-10-24T07:36:45.673Z,3.20
2022-10-24T07:39:14.781Z,2.93
2022-10-24T07:41:44.237Z,2.47
2022-10-24T07:44:12.416Z,2.40
2022-10-24T07:46:42.544Z,2.93
2022-10-24T07:49:11.164Z,2.73
2022-10-24T07:51:39.237Z,2.67
2022-10-24T07:54:08.724Z,3.10
2022-10-24T07:56:37.159Z,3.07
2022-10-24T07:59:09.345Z,2.93
2022-10-24T08:01:41.785Z,4.10
2022-10-24T08:04:10.988Z,3.60
2022-10-24T08:06:40.652Z,2.70
2022-10-24T08:09:10.272Z,3.20
2022-10-24T08:11:38.281Z,2.80
2022-10-24T08:14:06.281Z,2.67
2022-10-24T08:16:34.412Z,2.87
2022-10-24T08:19:02.454Z,2.37
2022-10-24T08:21:31.276Z,2.70
2022-10-24T08:23:59.338Z,3.23
2022-10-24T08:26:28.740Z,2.70
2022-10-24T08:28:57.697Z,3.07
2022-10-24T08:31:26.812Z,3.30
2022-10-24T08:33:56.332Z,2.30
2022-10-24T08:36:27.185Z,2.90
2022-10-24T08:38:55.590Z,3.13
2022-10-24T08:41:32.398Z,4.23
2022-10-24T08:44:03.588Z,2.50
2022-10-24T08:46:52.608Z,2.70
2022-10-24T08:49:28.923Z,3.20
2022-10-24T08:52:01.204Z,2.87
2022-10-24T08:54:36.719Z,4.13
2022-10-24T08:57:07.809Z,2.63
2022-10-24T08:59:38.509Z,2.30
2022-10-24T09:02:16.670Z,3.53
2022-10-24T09:04:50.028Z,2.80
2022-10-24T09:07:21.371Z,3.67
2022-10-24T09:09:52.109Z,2.93
2022-10-24T09:12:22.357Z,3.13
2022-10-24T09:14:56.044Z,3.33
2022-10-24T09:17:26.257Z,3.07
2022-10-24T09:19:57.146Z,2.60
2022-10-24T09:22:28.798Z,2.40
2022-10-24T09:25:00.079Z,2.67
2022-10-24T09:27:33.155Z,2.43
2022-10-24T09:30:01.696Z,2.80
2022-10-24T09:32:32.157Z,2.77
2022-10-24T09:35:01.456Z,3.43
2022-10-24T09:37:44.519Z,2.93
2022-10-24T09:40:20.549Z,2.90
2022-10-24T09:42:56.965Z,3.93
2022-10-24T09:45:37.090Z,3.63
2022-10-24T09:48:15.616Z,2.93
2022-10-24T09:50:45.343Z,3.00
2022-10-24T09:53:24.795Z,3.17
2022-10-24T09:55:57.614Z,3.00
2022-10-24T09:58:32.840Z,2.97
2022-10-24T10:01:05.148Z,3.20
2022-10-24T10:03:34.341Z,2.80
2022-10-24T10:06:06.146Z,3.33
2022-10-24T10:08:36.510Z,3.00
2022-10-24T10:11:07.474Z,3.43
2022-10-24T10:13:45.865Z,3.77
2022-10-24T10:16:23.764Z,4.17
2022-10-24T10:18:53.403Z,3.50
2022-10-24T10:21:23.155Z,2.93
2022-10-24T10:23:53.824Z,3.40
2022-10-24T10:26:27.321Z,4.10
2022-10-24T10:29:03.247Z,3.63
2022-10-24T10:31:40.960Z,2.87
2022-10-24T10:34:20.426Z,2.70
2022-10-24T10:37:23.547Z,4.93
2022-10-24T10:40:15.420Z,3.00
2022-10-24T10:42:55.101Z,3.60
2022-10-24T10:45:36.675Z,3.20
2022-10-24T10:48:29.854Z,3.43
2022-10-24T10:51:08.089Z,3.17
2022-10-24T10:53:41.325Z,3.33
2022-10-24T10:56:19.835Z,2.70
2022-10-24T10:58:56.124Z,3.40
2022-10-24T11:01:35.688Z,3.30
2022-10-24T11:04:14.521Z,3.50
2022-10-24T11:06:47.875Z,2.77
2022-10-24T11:09:28.860Z,2.87
2022-10-24T11:12:03.404Z,2.20
2022-10-24T11:14:34.659Z,2.67
2022-10-24T11:17:12.645Z,2.43
2022-10-24T11:20:02.604Z,2.53
2022-10-24T11:22:36.305Z,2.90
2022-10-24T11:25:08.697Z,3.10
2022-10-24T11:27:42.928Z,2.43
2022-10-24T11:30:16.567Z,2.17
2022-10-24T11:32:51.642Z,2.13
2022-10-24T11:35:27.977Z,1.90
2022-10-24T11:38:00.818Z,2.10
2022-10-24T11:40:30.813Z,2.73
2022-10-24T11:43:06.242Z,2.37
2022-10-24T11:45:41.654Z,1.70
2022-10-24T11:48:17.828Z,2.00
2022-10-24T11:50:50.664Z,2.27
2022-10-24T11:53:46.299Z,1.80
2022-10-24T11:56:22.391Z,1.80
2022-10-24T11:59:00.033Z,2.20
2022-10-24T12:02:12.262Z,2.00
2022-10-24T12:05:09.500Z,1.90
2022-10-24T12:08:00.052Z,2.27
2022-10-24T12:10:46.894Z,2.10
2022-10-24T12:13:43.196Z,1.80
2022-10-24T12:16:20.133Z,1.73
2022-10-24T12:18:50.806Z,1.43
2022-10-24T12:21:26.180Z,1.42
2022-10-24T12:23:56.172Z,1.23
2022-10-24T12:26:28.433Z,1.45
2022-10-24T12:28:58.020Z,1.40
2022-10-24T12:31:30.079Z,1.33
2022-10-24T12:34:34.368Z,1.07
2022-10-24T12:37:08.213Z,1.30
2022-10-24T12:39:38.514Z,1.10
2022-10-24T12:42:13.747Z,1.63
2022-10-24T12:44:43.988Z,1.30
2022-10-24T12:47:33.204Z,1.20
2022-10-24T12:50:40.223Z,1.65
2022-10-24T12:53:30.034Z,1.93
2022-10-24T12:56:24.433Z,1.37
2022-10-24T12:59:04.087Z,1.23
2022-10-24T13:01:35.462Z,1.00
2022-10-24T13:04:37.124Z,1.30
2022-10-24T13:07:30.711Z,1.20
2022-10-24T13:10:20.838Z,0.90
2022-10-24T13:13:04.157Z,1.20
2022-10-24T13:15:41.971Z,1.73
2022-10-24T13:18:20.572Z,1.10
2022-10-24T13:20:50.679Z,1.13
2022-10-24T13:23:23.351Z,1.00
2022-10-24T13:25:55.799Z,1.17
2022-10-24T13:28:43.244Z,1.03
2022-10-24T13:31:40.183Z,1.87
2022-10-24T13:34:17.960Z,0.80
2022-10-24T13:36:48.378Z,1.30
2022-10-24T13:39:20.239Z,1.80
2022-10-24T13:41:51.735Z,1.00
2022-10-24T13:44:24.200Z,1.03
2022-10-24T13:46:54.984Z,1.13
2022-10-24T13:49:28.568Z,1.10
2022-10-24T13:52:01.218Z,1.00
2022-10-24T13:54:32.996Z,1.03
2022-10-24T13:57:02.618Z,2.13
2022-10-24T13:59:32.872Z,1.10
2022-10-24T14:02:06.262Z,1.17
2022-10-24T14:04:36.010Z,1.07
2022-10-24T14:07:06.791Z,1.10
2022-10-24T14:09:40.989Z,0.90
2022-10-24T14:12:19.581Z,0.80
2022-10-24T14:14:50.988Z,0.80
2022-10-24T14:17:23.618Z,1.20
2022-10-24T14:19:55.767Z,1.00
2022-10-24T14:22:26.035Z,0.97
2022-10-24T14:24:54.039Z,1.00
2022-10-24T14:27:24.303Z,1.00
2022-10-24T14:29:59.339Z,1.00
2022-10-24T14:32:28.705Z,1.20
2022-10-24T14:34:58.683Z,1.20
2022-10-24T14:37:33.050Z,0.83
2022-10-24T14:40:02.260Z,1.38
2022-10-24T14:42:32.968Z,1.10
2022-10-24T14:45:01.246Z,1.70
2022-10-24T14:47:31.151Z,0.80
2022-10-24T14:50:02.779Z,1.20
2022-10-24T14:52:36.886Z,0.90
2022-10-24T14:55:07.720Z,1.63
2022-10-24T14:57:38.873Z,0.97
2022-10-24T15:00:09.676Z,1.17
2022-10-24T15:02:43.193Z,0.90
2022-10-24T15:05:26.964Z,0.97
2022-10-24T15:08:21.105Z,1.40
2022-10-24T15:10:48.107Z,1.00
2022-10-24T15:13:21.377Z,0.93
2022-10-24T15:15:53.004Z,1.03
2022-10-24T15:18:23.940Z,1.00
2022-10-24T15:20:54.511Z,1.10
2022-10-24T15:23:27.584Z,1.47
2022-10-24T15:26:04.699Z,1.10
2022-10-24T15:28:47.962Z,1.07
2022-10-24T15:31:18.465Z,1.00
2022-10-24T15:33:46.622Z,1.30
2022-10-24T15:36:20.636Z,1.10
2022-10-24T15:38:49.567Z,1.10
2022-10-24T15:41:17.549Z,1.00
2022-10-24T15:43:46.958Z,0.90
2022-10-24T15:46:15.093Z,1.23
2022-10-24T15:48:43.110Z,1.30
2022-10-24T15:51:14.782Z,1.07
2022-10-24T15:53:42.869Z,1.10
2022-10-24T15:56:12.174Z,0.87
2022-10-24T15:58:40.677Z,0.90
2022-10-24T16:01:30.474Z,1.73
2022-10-24T16:04:00.031Z,1.20
2022-10-24T16:06:28.245Z,1.03
2022-10-24T16:08:57.253Z,0.83
2022-10-24T16:11:25.358Z,1.10
2022-10-24T16:13:54.261Z,0.73
2022-10-24T16:16:23.687Z,0.90
2022-10-24T16:18:51.690Z,1.20
2022-10-24T16:21:21.565Z,1.30
2022-10-24T16:26:19.593Z,1.00
2022-10-24T16:28:47.729Z,1.10
2022-10-24T16:31:19.048Z,0.90
2022-10-24T16:33:48.690Z,1.30
2022-10-24T16:36:20.820Z,1.00
2022-10-24T16:38:52.458Z,0.90
2022-10-24T16:41:22.481Z,0.87
2022-10-24T16:43:51.008Z,1.60
2022-10-24T16:46:21.494Z,0.90
2022-10-24T16:48:51.691Z,1.40
2022-10-24T16:51:21.739Z,1.27
2022-10-24T16:53:49.934Z,1.20
2022-10-24T16:56:18.273Z,1.17
2022-10-24T16:58:46.349Z,1.03
2022-10-24T17:01:16.528Z,1.00
2022-10-24T17:03:45.742Z,0.80
2022-10-24T17:06:15.810Z,0.90
2022-10-24T17:08:44.160Z,1.03
2022-10-24T17:11:39.485Z,0.90
2022-10-24T17:14:00.470Z,1.20
2022-10-24T17:16:28.640Z,1.00
2022-10-24T17:19:05.918Z,1.40
2022-10-24T17:21:42.046Z,0.87
2022-10-24T17:24:11.866Z,1.27
2022-10-24T17:26:40.044Z,0.80
2022-10-24T17:29:08.511Z,1.40
2022-10-24T17:31:37.106Z,1.07
2022-10-24T17:34:05.586Z,1.27
2022-10-24T17:36:37.851Z,1.27
2022-10-24T17:39:11.143Z,1.30
2022-10-24T17:41:40.781Z,1.00
2022-10-24T17:44:16.287Z,1.13
2022-10-24T17:46:44.655Z,1.33
2022-10-24T17:49:16.504Z,1.00
2022-10-24T17:51:47.870Z,1.47
2022-10-24T17:54:18.580Z,1.00
2022-10-24T17:56:46.695Z,1.40
2022-10-24T17:59:14.948Z,1.53
2022-10-24T18:01:43.667Z,1.43
2022-10-24T18:04:11.731Z,1.20
2022-10-24T18:06:43.005Z,2.47
2022-10-24T18:09:11.931Z,1.83
2022-10-24T18:11:41.348Z,1.87
2022-10-24T18:14:09.401Z,2.30
2022-10-24T18:16:39.388Z,3.00
2022-10-24T18:19:07.702Z,4.83
2022-10-24T18:21:35.752Z,4.97
2022-10-24T18:24:06.462Z,3.80
2022-10-24T18:26:34.606Z,7.40
2022-10-24T18:29:03.968Z,5.60
2022-10-24T18:31:33.932Z,6.40
2022-10-24T18:34:06.310Z,6.27
2022-10-24T18:36:37.350Z,4.70
2022-10-24T18:39:06.138Z,5.80
2022-10-24T18:41:45.063Z,4.87
2022-10-24T18:44:27.263Z,4.20
2022-10-24T18:46:57.875Z,4.40
2022-10-24T18:49:26.379Z,4.20
2022-10-24T18:52:08.511Z,2.73
2022-10-24T18:54:38.364Z,4.30
2022-10-24T18:57:19.546Z,5.27
2022-10-24T18:59:49.274Z,4.53
2022-10-24T19:02:26.971Z,4.13
2022-10-24T19:05:05.369Z,3.33
2022-10-24T19:07:33.646Z,2.77
2022-10-24T19:10:02.163Z,2.30
2022-10-24T19:12:30.359Z,2.40
2022-10-24T19:15:00.188Z,2.30
2022-10-24T19:17:28.224Z,3.60
2022-10-24T19:19:57.584Z,2.73
2022-10-24T19:22:26.523Z,3.00
2022-10-24T19:24:54.564Z,3.73
2022-10-24T19:27:22.933Z,3.67
2022-10-24T19:29:51.005Z,3.73
2022-10-24T19:32:20.358Z,2.40
2022-10-24T19:34:48.483Z,3.20
2022-10-24T19:37:16.693Z,2.63
2022-10-24T19:39:44.707Z,2.47
2022-10-24T19:42:12.785Z,2.77
2022-10-24T19:44:42.782Z,2.27
2022-10-24T19:47:10.809Z,2.53
2022-10-24T19:49:40.191Z,2.80
2022-10-24T19:52:08.383Z,2.30
2022-10-24T19:54:36.406Z,2.93
2022-10-24T19:57:04.640Z,2.50
2022-10-24T19:59:33.942Z,1.87
2022-10-24T20:02:02.062Z,2.60
2022-10-24T20:04:30.578Z,2.30
2022-10-24T20:06:59.881Z,1.90
2022-10-24T20:09:27.889Z,2.17
2022-10-24T20:11:55.898Z,2.63
2022-10-24T20:14:24.527Z,1.60
2022-10-24T20:16:52.581Z,2.30
2022-10-24T20:19:20.891Z,2.40
2022-10-24T20:21:48.923Z,2.20
2022-10-24T20:24:18.257Z,2.23
2022-10-24T20:26:46.272Z,1.80
2022-10-24T20:29:15.501Z,1.90
2022-10-24T20:31:45.668Z,2.07
2022-10-24T20:34:15.044Z,2.40
2022-10-24T20:36:47.059Z,2.30
2022-10-24T20:39:20.738Z,2.77
2022-10-24T20:41:53.249Z,2.30
2022-10-24T20:44:22.521Z,2.50
2022-10-24T20:46:50.716Z,4.17
2022-10-24T20:49:18.737Z,7.37
2022-10-24T20:51:46.746Z,5.50
2022-10-24T20:54:14.891Z,5.53
2022-10-24T20:56:42.989Z,4.97
2022-10-24T20:59:14.186Z,4.10
2022-10-24T21:01:42.600Z,3.70
2022-10-24T21:04:10.739Z,2.90
2022-10-24T21:06:38.855Z,3.87
2022-10-24T21:09:08.087Z,4.43
2022-10-24T21:11:36.630Z,4.30
2022-10-24T21:14:06.509Z,3.47
2022-10-24T21:16:36.289Z,2.97
2022-10-24T21:19:05.305Z,2.60
2022-10-24T21:21:33.429Z,2.13
2022-10-24T21:24:05.760Z,2.57
2022-10-24T21:26:35.013Z,2.27
2022-10-24T21:29:20.690Z,2.30
2022-10-24T21:31:52.772Z,1.73
2022-10-24T21:34:20.968Z,1.80
2022-10-24T21:36:49.104Z,2.03
2022-10-24T21:39:17.923Z,2.10
2022-10-24T21:41:46.231Z,1.77
2022-10-24T21:44:15.071Z,1.90
2022-10-24T21:46:43.458Z,1.97
2022-10-24T21:49:13.070Z,1.37
2022-10-24T21:51:42.776Z,1.73
2022-10-24T21:54:17.501Z,1.90
2022-10-24T21:56:46.030Z,1.47
2022-10-24T21:59:16.149Z,1.80
2022-10-24T22:01:45.847Z,1.50
2022-10-24T22:04:16.572Z,1.80
2022-10-24T22:06:45.759Z,2.00
2022-10-24T22:09:15.692Z,2.50
2022-10-24T22:11:44.350Z,1.40
2022-10-24T22:14:15.041Z,1.27
2022-10-24T22:16:44.281Z,1.40
2022-10-24T22:19:13.343Z,2.07
2022-10-24T22:21:44.946Z,2.00
2022-10-24T22:24:14.394Z,2.10
2022-10-24T22:26:43.083Z,1.90
2022-10-24T22:29:13.747Z,2.27
2022-10-24T22:31:42.321Z,1.70
2022-10-24T22:34:15.482Z,1.40
2022-10-24T22:37:05.348Z,3.10
2022-10-24T22:39:34.088Z,1.40
2022-10-24T22:42:02.614Z,1.80
2022-10-24T22:44:31.126Z,1.27
2022-10-24T22:47:22.796Z,1.47
2022-10-24T22:50:00.527Z,1.27
2022-10-24T22:52:30.587Z,1.83
2022-10-24T22:54:59.265Z,1.20
2022-10-24T22:57:27.744Z,1.27
2022-10-24T22:59:56.166Z,1.03
2022-10-24T23:02:29.923Z,1.30
2022-10-24T23:05:04.787Z,1.37
2022-10-24T23:07:42.822Z,1.50
2022-10-24T23:10:13.828Z,1.40
2022-10-24T23:12:42.453Z,1.43
2022-10-24T23:15:14.407Z,1.57
2022-10-24T23:17:43.314Z,1.07
2022-10-24T23:20:22.887Z,1.70
2022-10-24T23:23:03.022Z,1.40
2022-10-24T23:25:45.062Z,0.87
2022-10-24T23:28:20.334Z,1.87
2022-10-24T23:30:48.940Z,1.00
2022-10-24T23:33:23.575Z,1.20
2022-10-24T23:35:57.596Z,1.00
2022-10-24T23:38:28.094Z,2.00
2022-10-24T23:40:56.905Z,1.70
2022-10-24T23:43:25.942Z,1.50
2022-10-24T23:45:58.789Z,1.23
2022-10-24T23:48:44.640Z,1.23
2022-10-24T23:51:15.931Z,1.50
2022-10-24T23:53:52.730Z,1.10
2022-10-24T23:56:22.554Z,1.50
2022-10-24T23:58:50.585Z,1.40
